sensor_id;sensor_type;location;lat;lon;timestamp;P1;durP1;ratioP1;P2;durP2;ratioP2
18503;SDS011;9381;54.244;10.074;2022-09-02T00:04:00;2.10;;;1.40;;
18503;SDS011;9381;54.244;10.074;2022-09-02T00:09:04;3.03;;;1.20;;
18503;SDS011;9381;54.244;10.074;2022-09-02T00:14:08;2.43;;;1.10;;
18503;SDS011;9381;54.244;10.074;2022-09-02T00:19:11;2.17;;;1.10;;
18503;SDS011;9381;54.244;10.074;2022-09-02T00:24:12;2.30;;;1.45;;
18503;SDS011;9381;54.244;10.074;2022-09-02T00:29:12;1.70;;;1.20;;
18503;SDS011;9381;54.244;10.074;2022-09-02T00:34:14;2.03;;;1.30;;
18503;SDS011;9381;54.244;10.074;2022-09-02T00:39:14;2.70;;;1.40;;
18503;SDS011;9381;54.244;10.074;2022-09-02T00:44:16;1.73;;;1.37;;
18503;SDS011;9381;54.244;10.074;2022-09-02T00:49:20;1.67;;;1.20;;
18503;SDS011;9381;54.244;10.074;2022-09-02T00:54:25;2.00;;;1.20;;
18503;SDS011;9381;54.244;10.074;2022-09-02T00:59:49;1.50;;;1.40;;
18503;SDS011;9381;54.244;10.074;2022-09-02T01:04:52;1.60;;;1.20;;
18503;SDS011;9381;54.244;10.074;2022-09-02T01:09:55;2.23;;;1.20;;
18503;SDS011;9381;54.244;10.074;2022-09-02T01:14:57;1.97;;;1.10;;
18503;SDS011;9381;54.244;10.074;2022-09-02T01:19:59;1.30;;;1.20;;
18503;SDS011;9381;54.244;10.074;2022-09-02T01:25:07;2.73;;;1.60;;
18503;SDS011;9381;54.244;10.074;2022-09-02T01:30:15;2.07;;;1.30;;
18503;SDS011;9381;54.244;10.074;2022-09-02T01:35:19;2.10;;;1.17;;
18503;SDS011;9381;54.244;10.074;2022-09-02T01:40:19;1.42;;;1.15;;
18503;SDS011;9381;54.244;10.074;2022-09-02T01:45:20;1.53;;;1.07;;
18503;SDS011;9381;54.244;10.074;2022-09-02T01:50:21;1.13;;;1.03;;
18503;SDS011;9381;54.244;10.074;2022-09-02T01:55:21;1.47;;;1.23;;
18503;SDS011;9381;54.244;10.074;2022-09-02T02:00:22;1.10;;;1.00;;
18503;SDS011;9381;54.244;10.074;2022-09-02T02:05:23;1.43;;;1.33;;
18503;SDS011;9381;54.244;10.074;2022-09-02T02:10:24;2.17;;;1.30;;
18503;SDS011;9381;54.244;10.074;2022-09-02T02:15:24;1.30;;;1.20;;
18503;SDS011;9381;54.244;10.074;2022-09-02T02:20:25;1.33;;;1.20;;
18503;SDS011;9381;54.244;10.074;2022-09-02T02:25:26;1.60;;;1.23;;
18503;SDS011;9381;54.244;10.074;2022-09-02T02:30:27;1.80;;;1.40;;
18503;SDS011;9381;54.244;10.074;2022-09-02T02:35:27;1.40;;;1.00;;
18503;SDS011;9381;54.244;10.074;2022-09-02T02:40:28;1.90;;;1.17;;
18503;SDS011;9381;54.244;10.074;2022-09-02T02:45:28;1.98;;;1.20;;
18503;SDS011;9381;54.244;10.074;2022-09-02T02:50:28;1.30;;;1.20;;
18503;SDS011;9381;54.244;10.074;2022-09-02T02:55:29;1.70;;;1.37;;
18503;SDS011;9381;54.244;10.074;2022-09-02T03:00:29;1.70;;;1.10;;
18503;SDS011;9381;54.244;10.074;2022-09-02T03:05:31;1.53;;;1.43;;
18503;SDS011;9381;54.244;10.074;2022-09-02T03:10:34;1.50;;;1.40;;
18503;SDS011;9381;54.244;10.074;2022-09-02T03:15:37;1.50;;;1.40;;
18503;SDS011;9381;54.244;10.074;2022-09-02T03:20:40;2.20;;;1.40;;
18503;SDS011;9381;54.244;10.074;2022-09-02T03:25:42;1.37;;;1.27;;
18503;SDS011;9381;54.244;10.074;2022-09-02T03:30:44;1.30;;;1.20;;
18503;SDS011;9381;54.244;10.074;2022-09-02T03:35:45;2.20;;;1.30;;
18503;SDS011;9381;54.244;10.074;2022-09-02T03:40:45;2.07;;;1.50;;
18503;SDS011;9381;54.244;10.074;2022-09-02T03:45:46;2.40;;;1.50;;
18503;SDS011;9381;54.244;10.074;2022-09-02T03:50:46;1.60;;;1.50;;
18503;SDS011;9381;54.244;10.074;2022-09-02T03:55:47;1.80;;;1.30;;
18503;SDS011;9381;54.244;10.074;2022-09-02T04:00:50;1.40;;;1.30;;
18503;SDS011;9381;54.244;10.074;2022-09-02T04:05:52;1.27;;;1.17;;
18503;SDS011;9381;54.244;10.074;2022-09-02T04:10:53;1.50;;;1.37;;
18503;SDS011;9381;54.244;10.074;2022-09-02T04:15:55;1.70;;;1.23;;
18503;SDS011;9381;54.244;10.074;2022-09-02T04:20:57;1.40;;;1.30;;
18503;SDS011;9381;54.244;10.074;2022-09-02T04:26:05;2.93;;;1.30;;
18503;SDS011;9381;54.244;10.074;2022-09-02T04:31:11;2.57;;;1.40;;
18503;SDS011;9381;54.244;10.074;2022-09-02T04:36:15;4.97;;;1.43;;
18503;SDS011;9381;54.244;10.074;2022-09-02T04:41:17;2.23;;;1.13;;
18503;SDS011;9381;54.244;10.074;2022-09-02T04:46:22;1.50;;;1.30;;
18503;SDS011;9381;54.244;10.074;2022-09-02T04:51:24;1.97;;;1.60;;
18503;SDS011;9381;54.244;10.074;2022-09-02T04:56:26;1.57;;;1.10;;
18503;SDS011;9381;54.244;10.074;2022-09-02T05:01:29;1.40;;;1.30;;
18503;SDS011;9381;54.244;10.074;2022-09-02T05:06:32;1.30;;;1.20;;
18503;SDS011;9381;54.244;10.074;2022-09-02T05:11:33;1.30;;;1.20;;
18503;SDS011;9381;54.244;10.074;2022-09-02T05:16:35;1.40;;;1.30;;
18503;SDS011;9381;54.244;10.074;2022-09-02T05:21:41;1.53;;;1.43;;
18503;SDS011;9381;54.244;10.074;2022-09-02T05:26:41;1.57;;;1.40;;
18503;SDS011;9381;54.244;10.074;2022-09-02T05:31:43;1.50;;;1.40;;
18503;SDS011;9381;54.244;10.074;2022-09-02T05:36:43;4.27;;;1.30;;
18503;SDS011;9381;54.244;10.074;2022-09-02T05:41:44;1.67;;;1.40;;
18503;SDS011;9381;54.244;10.074;2022-09-02T05:46:44;2.65;;;1.27;;
18503;SDS011;9381;54.244;10.074;2022-09-02T05:56:48;1.97;;;1.20;;
18503;SDS011;9381;54.244;10.074;2022-09-02T06:01:50;1.57;;;1.47;;
18503;SDS011;9381;54.244;10.074;2022-09-02T06:06:50;2.53;;;1.48;;
18503;SDS011;9381;54.244;10.074;2022-09-02T06:11:51;1.23;;;1.10;;
18503;SDS011;9381;54.244;10.074;2022-09-02T06:16:53;2.37;;;1.40;;
18503;SDS011;9381;54.244;10.074;2022-09-02T06:21:55;1.73;;;1.17;;
18503;SDS011;9381;54.244;10.074;2022-09-02T06:26:57;1.77;;;1.30;;
18503;SDS011;9381;54.244;10.074;2022-09-02T06:31:58;3.17;;;1.20;;
18503;SDS011;9381;54.244;10.074;2022-09-02T06:36:58;1.70;;;1.20;;
18503;SDS011;9381;54.244;10.074;2022-09-02T06:41:59;1.33;;;1.20;;
18503;SDS011;9381;54.244;10.074;2022-09-02T06:47:00;2.03;;;1.20;;
18503;SDS011;9381;54.244;10.074;2022-09-02T06:52:01;1.13;;;1.03;;
18503;SDS011;9381;54.244;10.074;2022-09-02T06:57:01;1.33;;;0.97;;
18503;SDS011;9381;54.244;10.074;2022-09-02T07:02:02;1.73;;;1.00;;
18503;SDS011;9381;54.244;10.074;2022-09-02T07:07:04;1.67;;;1.00;;
18503;SDS011;9381;54.244;10.074;2022-09-02T07:12:05;1.73;;;1.10;;
18503;SDS011;9381;54.244;10.074;2022-09-02T07:17:08;6.30;;;1.73;;
18503;SDS011;9381;54.244;10.074;2022-09-02T07:22:10;2.47;;;1.20;;
18503;SDS011;9381;54.244;10.074;2022-09-02T07:27:10;1.63;;;1.30;;
18503;SDS011;9381;54.244;10.074;2022-09-02T07:32:11;1.50;;;1.10;;
18503;SDS011;9381;54.244;10.074;2022-09-02T07:37:11;1.23;;;0.90;;
18503;SDS011;9381;54.244;10.074;2022-09-02T07:42:12;1.20;;;1.10;;
18503;SDS011;9381;54.244;10.074;2022-09-02T07:47:12;1.00;;;0.90;;
18503;SDS011;9381;54.244;10.074;2022-09-02T07:52:13;1.23;;;1.10;;
18503;SDS011;9381;54.244;10.074;2022-09-02T07:57:13;3.90;;;1.10;;
18503;SDS011;9381;54.244;10.074;2022-09-02T08:02:14;1.13;;;0.80;;
18503;SDS011;9381;54.244;10.074;2022-09-02T08:07:17;1.67;;;1.20;;
18503;SDS011;9381;54.244;10.074;2022-09-02T08:12:23;0.70;;;0.70;;
18503;SDS011;9381;54.244;10.074;2022-09-02T08:17:23;0.80;;;0.70;;
18503;SDS011;9381;54.244;10.074;2022-09-02T08:22:24;1.47;;;1.03;;
18503;SDS011;9381;54.244;10.074;2022-09-02T08:27:25;0.70;;;0.70;;
18503;SDS011;9381;54.244;10.074;2022-09-02T08:32:27;0.87;;;0.70;;
18503;SDS011;9381;54.244;10.074;2022-09-02T08:37:28;1.90;;;0.90;;
18503;SDS011;9381;54.244;10.074;2022-09-02T08:42:31;1.63;;;0.70;;
18503;SDS011;9381;54.244;10.074;2022-09-02T08:47:34;0.70;;;0.70;;
18503;SDS011;9381;54.244;10.074;2022-09-02T08:52:40;1.40;;;0.70;;
18503;SDS011;9381;54.244;10.074;2022-09-02T08:57:44;1.50;;;0.70;;
18503;SDS011;9381;54.244;10.074;2022-09-02T09:02:53;1.27;;;0.80;;
18503;SDS011;9381;54.244;10.074;2022-09-02T09:13:38;1.53;;;1.00;;
18503;SDS011;9381;54.244;10.074;2022-09-02T09:24:17;1.30;;;0.90;;
18503;SDS011;9381;54.244;10.074;2022-09-02T09:29:37;2.40;;;0.80;;
18503;SDS011;9381;54.244;10.074;2022-09-02T09:39:53;0.87;;;0.60;;
18503;SDS011;9381;54.244;10.074;2022-09-02T09:44:53;1.13;;;0.70;;
18503;SDS011;9381;54.244;10.074;2022-09-02T09:55:17;2.00;;;0.70;;
18503;SDS011;9381;54.244;10.074;2022-09-02T10:10:24;1.77;;;0.60;;
18503;SDS011;9381;54.244;10.074;2022-09-02T10:15:48;0.70;;;0.60;;
18503;SDS011;9381;54.244;10.074;2022-09-02T10:26:11;3.07;;;0.77;;
18503;SDS011;9381;54.244;10.074;2022-09-02T10:47:37;1.37;;;0.67;;
18503;SDS011;9381;54.244;10.074;2022-09-02T10:57:58;1.00;;;0.50;;
18503;SDS011;9381;54.244;10.074;2022-09-02T11:03:24;0.73;;;0.70;;
18503;SDS011;9381;54.244;10.074;2022-09-02T11:13:36;1.00;;;0.60;;
18503;SDS011;9381;54.244;10.074;2022-09-02T11:18:58;0.67;;;0.50;;
18503;SDS011;9381;54.244;10.074;2022-09-02T11:24:03;2.73;;;0.50;;
18503;SDS011;9381;54.244;10.074;2022-09-02T11:29:08;1.47;;;0.73;;
18503;SDS011;9381;54.244;10.074;2022-09-02T11:34:19;1.03;;;0.60;;
18503;SDS011;9381;54.244;10.074;2022-09-02T11:39:45;1.47;;;0.53;;
18503;SDS011;9381;54.244;10.074;2022-09-02T11:55:22;1.53;;;0.60;;
18503;SDS011;9381;54.244;10.074;2022-09-02T12:00:58;0.97;;;0.53;;
18503;SDS011;9381;54.244;10.074;2022-09-02T12:06:05;1.30;;;0.67;;
18503;SDS011;9381;54.244;10.074;2022-09-02T12:16:44;1.37;;;0.57;;
18503;SDS011;9381;54.244;10.074;2022-09-02T12:27:21;1.07;;;0.70;;
18503;SDS011;9381;54.244;10.074;2022-09-02T12:43:59;0.97;;;0.63;;
18503;SDS011;9381;54.244;10.074;2022-09-02T12:48:41;0.93;;;0.63;;
18503;SDS011;9381;54.244;10.074;2022-09-02T12:53:48;3.67;;;0.60;;
18503;SDS011;9381;54.244;10.074;2022-09-02T12:58:50;0.63;;;0.60;;
18503;SDS011;9381;54.244;10.074;2022-09-02T13:04:14;0.70;;;0.70;;
18503;SDS011;9381;54.244;10.074;2022-09-02T13:20:50;1.10;;;0.60;;
18503;SDS011;9381;54.244;10.074;2022-09-02T13:36:22;2.73;;;0.90;;
18503;SDS011;9381;54.244;10.074;2022-09-02T13:41:27;0.97;;;0.60;;
18503;SDS011;9381;54.244;10.074;2022-09-02T13:46:28;2.57;;;0.70;;
18503;SDS011;9381;54.244;10.074;2022-09-02T13:51:29;1.13;;;0.60;;
18503;SDS011;9381;54.244;10.074;2022-09-02T13:56:29;1.23;;;0.53;;
18503;SDS011;9381;54.244;10.074;2022-09-02T14:01:31;0.70;;;0.70;;
18503;SDS011;9381;54.244;10.074;2022-09-02T14:06:35;2.63;;;1.00;;
18503;SDS011;9381;54.244;10.074;2022-09-02T14:11:40;1.00;;;0.70;;
18503;SDS011;9381;54.244;10.074;2022-09-02T14:16:42;3.13;;;0.80;;
18503;SDS011;9381;54.244;10.074;2022-09-02T14:21:46;1.67;;;0.70;;
18503;SDS011;9381;54.244;10.074;2022-09-02T14:26:49;0.60;;;0.60;;
18503;SDS011;9381;54.244;10.074;2022-09-02T14:32:02;0.90;;;0.90;;
18503;SDS011;9381;54.244;10.074;2022-09-02T14:42:23;1.50;;;0.80;;
18503;SDS011;9381;54.244;10.074;2022-09-02T14:47:24;1.57;;;0.90;;
18503;SDS011;9381;54.244;10.074;2022-09-02T14:52:28;2.00;;;0.90;;
18503;SDS011;9381;54.244;10.074;2022-09-02T14:57:33;2.20;;;0.80;;
18503;SDS011;9381;54.244;10.074;2022-09-02T15:02:39;1.00;;;0.70;;
18503;SDS011;9381;54.244;10.074;2022-09-02T15:07:41;2.30;;;0.70;;
18503;SDS011;9381;54.244;10.074;2022-09-02T15:12:47;1.73;;;0.90;;
18503;SDS011;9381;54.244;10.074;2022-09-02T15:17:49;1.07;;;0.90;;
18503;SDS011;9381;54.244;10.074;2022-09-02T15:22:49;1.87;;;0.90;;
18503;SDS011;9381;54.244;10.074;2022-09-02T15:27:51;0.87;;;0.73;;
18503;SDS011;9381;54.244;10.074;2022-09-02T15:32:51;4.63;;;0.73;;
18503;SDS011;9381;54.244;10.074;2022-09-02T15:37:52;3.20;;;0.90;;
18503;SDS011;9381;54.244;10.074;2022-09-02T15:42:52;2.83;;;0.97;;
18503;SDS011;9381;54.244;10.074;2022-09-02T15:47:55;1.53;;;0.90;;
18503;SDS011;9381;54.244;10.074;2022-09-02T15:52:56;0.97;;;0.60;;
18503;SDS011;9381;54.244;10.074;2022-09-02T15:57:57;1.30;;;0.63;;
18503;SDS011;9381;54.244;10.074;2022-09-02T16:02:58;2.50;;;0.70;;
18503;SDS011;9381;54.244;10.074;2022-09-02T16:07:58;1.03;;;0.90;;
18503;SDS011;9381;54.244;10.074;2022-09-02T16:12:59;1.57;;;1.03;;
18503;SDS011;9381;54.244;10.074;2022-09-02T16:18:01;3.27;;;0.80;;
18503;SDS011;9381;54.244;10.074;2022-09-02T16:23:01;1.23;;;0.80;;
18503;SDS011;9381;54.244;10.074;2022-09-02T16:28:02;3.13;;;0.90;;
18503;SDS011;9381;54.244;10.074;2022-09-02T16:33:02;2.33;;;0.80;;
18503;SDS011;9381;54.244;10.074;2022-09-02T16:38:02;1.33;;;0.70;;
18503;SDS011;9381;54.244;10.074;2022-09-02T16:43:03;1.23;;;0.93;;
18503;SDS011;9381;54.244;10.074;2022-09-02T16:48:03;1.90;;;0.70;;
18503;SDS011;9381;54.244;10.074;2022-09-02T16:53:04;0.97;;;0.67;;
18503;SDS011;9381;54.244;10.074;2022-09-02T16:58:05;3.07;;;0.80;;
18503;SDS011;9381;54.244;10.074;2022-09-02T17:03:09;3.87;;;0.90;;
18503;SDS011;9381;54.244;10.074;2022-09-02T17:08:10;1.90;;;0.60;;
18503;SDS011;9381;54.244;10.074;2022-09-02T17:13:11;1.70;;;0.93;;
18503;SDS011;9381;54.244;10.074;2022-09-02T17:18:11;2.70;;;0.80;;
18503;SDS011;9381;54.244;10.074;2022-09-02T17:23:13;2.43;;;0.70;;
18503;SDS011;9381;54.244;10.074;2022-09-02T17:28:13;1.03;;;0.83;;
18503;SDS011;9381;54.244;10.074;2022-09-02T17:33:14;1.27;;;0.73;;
18503;SDS011;9381;54.244;10.074;2022-09-02T17:38:14;2.17;;;1.10;;
18503;SDS011;9381;54.244;10.074;2022-09-02T17:43:14;3.37;;;0.90;;
18503;SDS011;9381;54.244;10.074;2022-09-02T17:48:15;1.60;;;0.70;;
18503;SDS011;9381;54.244;10.074;2022-09-02T17:53:15;1.00;;;0.90;;
18503;SDS011;9381;54.244;10.074;2022-09-02T17:58:17;3.87;;;1.13;;
18503;SDS011;9381;54.244;10.074;2022-09-02T18:03:29;1.90;;;1.00;;
18503;SDS011;9381;54.244;10.074;2022-09-02T18:08:48;3.77;;;1.10;;
18503;SDS011;9381;54.244;10.074;2022-09-02T18:24:52;3.30;;;1.00;;
18503;SDS011;9381;54.244;10.074;2022-09-02T18:30:09;4.40;;;1.00;;
18503;SDS011;9381;54.244;10.074;2022-09-02T18:35:18;0.80;;;0.80;;
18503;SDS011;9381;54.244;10.074;2022-09-02T18:40:28;2.57;;;0.90;;
18503;SDS011;9381;54.244;10.074;2022-09-02T18:56:10;2.07;;;1.03;;
18503;SDS011;9381;54.244;10.074;2022-09-02T19:01:24;1.20;;;1.00;;
18503;SDS011;9381;54.244;10.074;2022-09-02T19:06:27;1.70;;;0.90;;
18503;SDS011;9381;54.244;10.074;2022-09-02T19:11:34;2.53;;;1.20;;
18503;SDS011;9381;54.244;10.074;2022-09-02T19:16:36;5.00;;;1.20;;
18503;SDS011;9381;54.244;10.074;2022-09-02T19:21:39;5.80;;;1.47;;
18503;SDS011;9381;54.244;10.074;2022-09-02T19:26:46;2.33;;;1.10;;
18503;SDS011;9381;54.244;10.074;2022-09-02T19:31:47;3.17;;;1.30;;
18503;SDS011;9381;54.244;10.074;2022-09-02T19:36:48;1.60;;;0.77;;
18503;SDS011;9381;54.244;10.074;2022-09-02T19:41:49;2.67;;;1.10;;
18503;SDS011;9381;54.244;10.074;2022-09-02T19:46:49;2.77;;;1.00;;
18503;SDS011;9381;54.244;10.074;2022-09-02T19:51:50;3.53;;;1.27;;
18503;SDS011;9381;54.244;10.074;2022-09-02T19:56:51;4.40;;;1.13;;
18503;SDS011;9381;54.244;10.074;2022-09-02T20:01:51;3.63;;;1.23;;
18503;SDS011;9381;54.244;10.074;2022-09-02T20:06:52;2.63;;;1.30;;
18503;SDS011;9381;54.244;10.074;2022-09-02T20:11:52;2.40;;;1.13;;
18503;SDS011;9381;54.244;10.074;2022-09-02T20:16:53;2.93;;;1.37;;
18503;SDS011;9381;54.244;10.074;2022-09-02T20:21:57;6.27;;;1.27;;
18503;SDS011;9381;54.244;10.074;2022-09-02T20:37:53;2.23;;;1.30;;
18503;SDS011;9381;54.244;10.074;2022-09-02T21:04:34;3.33;;;1.50;;
18503;SDS011;9381;54.244;10.074;2022-09-02T21:09:48;4.13;;;1.20;;
18503;SDS011;9381;54.244;10.074;2022-09-02T21:14:57;4.37;;;1.40;;
18503;SDS011;9381;54.244;10.074;2022-09-02T21:25:43;3.77;;;1.90;;
18503;SDS011;9381;54.244;10.074;2022-09-02T21:30:53;2.53;;;1.40;;
18503;SDS011;9381;54.244;10.074;2022-09-02T21:35:59;2.47;;;1.40;;
18503;SDS011;9381;54.244;10.074;2022-09-02T21:46:30;5.83;;;1.30;;
18503;SDS011;9381;54.244;10.074;2022-09-02T21:52:06;3.43;;;1.43;;
18503;SDS011;9381;54.244;10.074;2022-09-02T22:02:42;3.00;;;1.40;;
18503;SDS011;9381;54.244;10.074;2022-09-02T22:07:50;2.80;;;1.40;;
18503;SDS011;9381;54.244;10.074;2022-09-02T22:12:58;2.00;;;1.07;;
18503;SDS011;9381;54.244;10.074;2022-09-02T22:23:44;3.13;;;1.30;;
18503;SDS011;9381;54.244;10.074;2022-09-02T22:28:45;2.93;;;1.30;;
18503;SDS011;9381;54.244;10.074;2022-09-02T22:33:51;2.97;;;1.20;;
18503;SDS011;9381;54.244;10.074;2022-09-02T22:38:57;1.10;;;1.00;;
18503;SDS011;9381;54.244;10.074;2022-09-02T22:44:05;3.63;;;1.30;;
18503;SDS011;9381;54.244;10.074;2022-09-02T22:49:12;3.77;;;1.03;;
18503;SDS011;9381;54.244;10.074;2022-09-02T22:54:33;4.00;;;1.00;;
18503;SDS011;9381;54.244;10.074;2022-09-02T22:59:46;2.10;;;1.23;;
18503;SDS011;9381;54.244;10.074;2022-09-02T23:10:30;2.23;;;1.27;;
18503;SDS011;9381;54.244;10.074;2022-09-02T23:15:33;1.48;;;1.20;;
18503;SDS011;9381;54.244;10.074;2022-09-02T23:20:51;2.30;;;1.00;;
18503;SDS011;9381;54.244;10.074;2022-09-02T23:37:05;1.37;;;1.07;;
18503;SDS011;9381;54.244;10.074;2022-09-02T23:42:24;1.40;;;1.00;;
18503;SDS011;9381;54.244;10.074;2022-09-02T23:47:45;2.03;;;1.30;;
18503;SDS011;9381;54.244;10.074;2022-09-02T23:53:20;2.13;;;1.30;;
